Time;durP1;ratioP1;P1;durP2;ratioP2;P2;SDS_P1;SDS_P2;PMS_P1;PMS_P2;Temp;Humidity;BMP_temperature;BMP_pressure;BME280_temperature;BME280_humidity;BME280_pressure;Samples;Min_cycle;Max_cycle;Signal;HPM_P1;HPM_P2
2021/11/24 00:00:25;;;;;;;11.93;6.90;;;;;;;6.46;100.00;101720.75;5028767;28;20065;-81
2021/11/24 00:02:52;;;;;;;12.63;6.63;;;;;;;6.42;100.00;101718.97;5010997;28;20034;-81
2021/11/24 00:05:19;;;;;;;12.77;6.33;;;;;;;6.35;100.00;101723.25;4992748;28;20037;-82
2021/11/24 00:07:46;;;;;;;13.13;6.50;;;;;;;6.32;100.00;101719.72;4994487;28;20049;-81
2021/11/24 00:10:18;;;;;;;9.80;5.93;;;;;;;6.39;100.00;101716.28;4979595;28;20079;-81
2021/11/24 00:12:44;;;;;;;12.03;6.03;;;;;;;6.39;100.00;101714.56;5013247;28;20376;-81
2021/11/24 00:15:11;;;;;;;12.87;6.57;;;;;;;6.36;100.00;101703.13;4993912;28;20029;-82
2021/11/24 00:17:38;;;;;;;9.17;5.67;;;;;;;6.30;100.00;101705.66;5045051;28;20073;-82
2021/11/24 00:20:06;;;;;;;13.87;5.63;;;;;;;6.35;100.00;101706.63;5007720;28;20042;-82
2021/11/24 00:22:33;;;;;;;11.00;6.87;;;;;;;6.29;100.00;101710.03;4998800;28;20049;-81
2021/11/24 00:25:00;;;;;;;13.40;7.50;;;;;;;6.24;100.00;101708.22;4996486;28;20037;-83
2021/11/24 00:27:30;;;;;;;9.77;5.70;;;;;;;6.25;100.00;101707.34;5015680;28;20537;-81
2021/11/24 00:29:59;;;;;;;8.20;5.10;;;;;;;6.22;100.00;101708.16;4998521;28;20107;-81
2021/11/24 00:32:26;;;;;;;7.67;5.10;;;;;;;6.20;100.00;101708.16;5017657;28;20044;-81
2021/11/24 00:34:52;;;;;;;14.47;6.10;;;;;;;6.20;100.00;101712.53;5001436;28;20053;-82
2021/11/24 00:37:19;;;;;;;9.67;5.40;;;;;;;6.21;100.00;101704.66;5034027;28;20045;-81
2021/11/24 00:39:46;;;;;;;11.30;5.83;;;;;;;6.16;100.00;101709.00;5014555;28;20046;-82
2021/11/24 00:42:12;;;;;;;11.93;5.93;;;;;;;6.22;100.00;101713.41;5024024;28;20049;-82
2021/11/24 00:44:39;;;;;;;8.97;5.87;;;;;;;6.24;100.00;101703.84;5018255;28;20038;-81
2021/11/24 00:47:08;;;;;;;7.30;4.23;;;;;;;6.28;100.00;101707.38;5019447;28;20052;-81
2021/11/24 00:49:36;;;;;;;10.13;5.10;;;;;;;6.27;100.00;101713.50;5027616;28;20085;-82
2021/11/24 00:52:02;;;;;;;10.33;4.83;;;;;;;6.21;100.00;101709.03;5028456;28;20044;-81
2021/11/24 00:54:29;;;;;;;7.23;4.20;;;;;;;6.20;100.00;101715.16;5035968;28;20029;-81
2021/11/24 00:56:56;;;;;;;10.37;5.63;;;;;;;6.18;100.00;101709.88;5034442;28;20498;-81
2021/11/24 00:59:23;;;;;;;8.83;4.77;;;;;;;6.21;100.00;101704.66;5030484;28;20469;-82
2021/11/24 01:01:50;;;;;;;11.13;6.00;;;;;;;6.19;100.00;101706.41;4999197;28;20053;-81
2021/11/24 01:04:17;;;;;;;8.47;5.03;;;;;;;6.19;100.00;101716.91;5048482;28;20443;-81
2021/11/24 01:06:43;;;;;;;8.87;4.87;;;;;;;6.23;100.00;101706.47;4985116;28;20042;-82
2021/11/24 01:09:10;;;;;;;9.07;5.00;;;;;;;6.24;100.00;101703.84;5018089;28;20088;-82
2021/11/24 01:11:37;;;;;;;8.83;5.57;;;;;;;6.19;100.00;101708.16;5034372;28;20041;-81
2021/11/24 01:14:05;;;;;;;10.03;5.43;;;;;;;6.23;100.00;101704.72;5054778;28;20069;-81
2021/11/24 01:16:32;;;;;;;9.83;5.37;;;;;;;6.20;100.00;101705.53;5001102;28;20029;-83
2021/11/24 01:18:58;;;;;;;10.20;5.10;;;;;;;6.15;100.00;101701.09;5000097;28;20034;-81
2021/11/24 01:21:25;;;;;;;7.90;4.60;;;;;;;6.16;100.00;101706.38;5032986;22;20694;-83
2021/11/24 01:23:52;;;;;;;10.77;4.97;;;;;;;6.17;100.00;101705.50;5040246;28;20042;-82
2021/11/24 01:26:19;;;;;;;9.03;4.63;;;;;;;6.16;100.00;101697.63;5014124;28;20034;-82
2021/11/24 01:28:46;;;;;;;10.60;4.80;;;;;;;6.17;100.00;101702.00;5028267;28;20052;-83
2021/11/24 01:31:13;;;;;;;8.13;4.50;;;;;;;6.23;100.00;101702.09;4998398;28;20041;-83
2021/11/24 01:33:39;;;;;;;6.87;4.40;;;;;;;6.20;100.00;101702.91;4996721;28;20049;-83
2021/11/24 01:36:06;;;;;;;7.60;3.93;;;;;;;6.19;100.00;101702.91;5014391;28;20041;-83
2021/11/24 01:38:33;;;;;;;8.87;4.83;;;;;;;6.13;100.00;101697.56;5029287;28;20064;-83
2021/11/24 01:40:59;;;;;;;8.50;5.40;;;;;;;6.14;100.00;101694.97;5014228;28;20132;-83
2021/11/24 01:43:26;;;;;;;10.47;4.80;;;;;;;6.11;100.00;101692.28;5008005;28;20096;-83
2021/11/24 01:45:53;;;;;;;7.80;4.63;;;;;;;6.16;100.00;101701.13;4996240;28;20088;-83
2021/11/24 01:48:19;;;;;;;8.73;4.93;;;;;;;6.15;100.00;101693.22;4980484;28;20140;-83
2021/11/24 01:50:46;;;;;;;7.57;4.70;;;;;;;6.13;100.00;101690.56;4997564;28;20095;-83
2021/11/24 01:53:13;;;;;;;9.20;4.90;;;;;;;6.15;100.00;101691.50;5010093;28;20106;-83
2021/11/24 01:55:39;;;;;;;8.63;4.40;;;;;;;6.10;100.00;101690.53;5010606;28;20042;-82
2021/11/24 01:58:06;;;;;;;8.63;4.30;;;;;;;6.11;100.00;101687.03;5028959;28;20099;-84
2021/11/24 02:00:34;;;;;;;9.77;4.60;;;;;;;6.08;100.00;101687.00;5007225;28;20041;-83
2021/11/24 02:03:03;;;;;;;7.03;4.03;;;;;;;6.07;100.00;101685.25;5013639;28;20048;-83
2021/11/24 02:05:30;;;;;;;9.93;4.70;;;;;;;6.05;100.00;101683.44;5045710;28;20041;-83
2021/11/24 02:07:57;;;;;;;7.03;4.80;;;;;;;6.12;100.00;101688.81;4981126;28;20549;-83
2021/11/24 02:10:24;;;;;;;10.17;5.47;;;;;;;6.13;100.00;101685.31;5028701;28;20045;-82
2021/11/24 02:12:51;;;;;;;8.03;4.60;;;;;;;6.08;100.00;101683.50;5013037;28;20041;-82
2021/11/24 02:15:19;;;;;;;10.60;4.83;;;;;;;6.13;100.00;101685.31;5028725;28;20034;-82
2021/11/24 02:17:45;;;;;;;9.67;6.03;;;;;;;6.16;100.00;101681.88;5013032;28;20502;-83
2021/11/24 02:20:17;;;;;;;9.87;5.17;;;;;;;6.19;100.00;101684.53;4979475;28;20414;-83
2021/11/24 02:22:43;;;;;;;10.90;5.67;;;;;;;6.23;100.00;101674.97;5013570;28;20049;-83
2021/11/24 02:25:10;;;;;;;15.30;6.13;;;;;;;6.17;100.00;101673.13;5038846;28;20034;-83
2021/11/24 02:27:37;;;;;;;9.00;5.00;;;;;;;6.13;100.00;101668.69;5013112;28;20049;-82
2021/11/24 02:30:04;;;;;;;7.97;5.70;;;;;;;6.12;100.00;101665.19;5012107;28;20486;-83
2021/11/24 02:32:31;;;;;;;11.57;5.67;;;;;;;6.16;100.00;101664.38;4995671;28;20053;-83
2021/11/24 02:34:58;;;;;;;11.67;6.80;;;;;;;6.11;100.00;101660.81;5039234;28;20025;-83
2021/11/24 02:37:24;;;;;;;10.90;6.13;;;;;;;6.18;100.00;101661.78;5036319;28;20522;-83
2021/11/24 02:39:51;;;;;;;11.13;5.70;;;;;;;6.14;100.00;101660.00;5008493;28;20184;-82
2021/11/24 02:42:18;;;;;;;11.50;5.97;;;;;;;6.17;100.00;101660.91;5019705;28;20044;-83
2021/11/24 02:44:44;;;;;;;8.87;5.77;;;;;;;6.14;100.00;101658.25;5019702;28;21743;-83
2021/11/24 02:47:14;;;;;;;12.57;6.63;;;;;;;6.14;100.00;101654.75;5026206;28;20487;-83
2021/11/24 02:49:43;;;;;;;10.03;6.27;;;;;;;6.12;100.00;101653.81;5003129;28;20054;-83
2021/11/24 02:52:14;;;;;;;11.47;6.47;;;;;;;6.14;100.00;101650.38;5028654;28;20041;-82
2021/11/24 02:54:48;;;;;;;10.30;6.20;;;;;;;6.14;100.00;101649.50;5011089;28;20495;-83
2021/11/24 02:57:15;;;;;;;10.67;6.57;;;;;;;6.13;100.00;101650.31;5008833;28;20034;-83
2021/11/24 02:59:42;;;;;;;14.53;6.93;;;;;;;6.16;100.00;101648.66;4976116;28;20507;-83
2021/11/24 03:02:09;;;;;;;13.10;7.23;;;;;;;6.19;100.00;101646.03;5011161;28;20140;-84
2021/11/24 03:04:40;;;;;;;10.53;6.47;;;;;;;6.14;100.00;101642.50;4994999;28;20458;-83
2021/11/24 03:07:07;;;;;;;13.47;6.63;;;;;;;6.15;100.00;101640.75;5026788;28;20399;-83
2021/11/24 03:09:33;;;;;;;12.20;6.50;;;;;;;6.23;100.00;101643.50;4995282;28;20507;-84
2021/11/24 03:12:00;;;;;;;11.53;7.27;;;;;;;6.15;100.00;101632.88;5012004;28;20046;-84
2021/11/24 03:14:27;;;;;;;12.87;6.13;;;;;;;6.13;100.00;101642.47;5042998;28;20045;-83
2021/11/24 03:16:57;;;;;;;12.37;7.20;;;;;;;6.16;100.00;101637.28;5014056;28;20075;-84
2021/11/24 03:19:23;;;;;;;9.03;5.63;;;;;;;6.18;100.00;101631.16;5027387;28;20060;-83
2021/11/24 03:21:50;;;;;;;11.80;6.93;;;;;;;6.13;100.00;101638.09;5013521;28;20049;-85
2021/11/24 03:24:17;;;;;;;11.43;7.07;;;;;;;6.14;100.00;101633.75;4995083;28;20041;-84
2021/11/24 03:26:44;;;;;;;11.87;6.03;;;;;;;6.09;100.00;101633.69;5027610;28;20555;-83
2021/11/24 03:29:11;;;;;;;10.03;6.17;;;;;;;6.08;100.00;101636.28;5027643;28;20060;-84
2021/11/24 03:31:37;;;;;;;9.53;6.03;;;;;;;6.07;100.00;101638.03;5011892;28;20037;-84
2021/11/24 03:34:06;;;;;;;10.63;5.47;;;;;;;6.07;100.00;101629.28;5010026;28;20375;-86
2021/11/24 03:36:33;;;;;;;9.43;6.00;;;;;;;6.08;100.00;101626.66;5012076;28;20042;-84
2021/11/24 03:38:59;;;;;;;11.53;6.97;;;;;;;6.08;100.00;101618.81;5027733;28;20584;-84
2021/11/24 03:41:26;;;;;;;16.13;6.67;;;;;;;6.08;100.00;101628.41;5028934;28;20045;-84
2021/11/24 03:43:53;;;;;;;12.07;7.37;;;;;;;6.06;100.00;101617.03;5011173;28;20045;-84
2021/11/24 03:46:19;;;;;;;13.77;7.90;;;;;;;6.06;100.00;101617.91;5013291;28;20049;-84
2021/11/24 03:48:46;;;;;;;11.47;6.87;;;;;;;6.03;100.00;101617.84;5010760;28;20467;-84
2021/11/24 03:51:15;;;;;;;11.27;6.37;;;;;;;6.07;100.00;101606.56;5011985;28;20132;-84
2021/11/24 03:53:43;;;;;;;15.43;6.93;;;;;;;6.10;100.00;101606.56;5044122;28;20049;-83
2021/11/24 03:56:13;;;;;;;12.80;7.13;;;;;;;6.12;100.00;101609.22;5013151;28;20038;-85
2021/11/24 03:58:40;;;;;;;12.00;7.07;;;;;;;6.11;100.00;101596.97;5010591;28;20047;-84
2021/11/24 04:01:07;;;;;;;13.57;6.77;;;;;;;6.07;100.00;101603.94;5021692;28;20410;-84
2021/11/24 04:03:34;;;;;;;11.63;6.10;;;;;;;6.06;100.00;101615.28;5036666;28;20616;-84
2021/11/24 04:06:01;;;;;;;10.50;6.17;;;;;;;6.09;100.00;101609.19;5007797;28;20049;-85
2021/11/24 04:08:28;;;;;;;13.53;6.70;;;;;;;6.01;100.00;101606.47;4999950;28;20041;-84
2021/11/24 04:10:54;;;;;;;12.00;6.40;;;;;;;6.03;100.00;101619.59;5015524;28;20045;-84
2021/11/24 04:13:21;;;;;;;12.47;6.13;;;;;;;6.00;100.00;101616.94;5044885;28;20042;-84
2021/11/24 04:15:48;;;;;;;10.70;6.47;;;;;;;6.04;100.00;101614.34;5032600;28;20045;-83
2021/11/24 04:18:15;;;;;;;11.07;6.40;;;;;;;6.01;100.00;101609.09;5015077;28;20148;-85
2021/11/24 04:20:41;;;;;;;11.30;6.53;;;;;;;6.10;100.00;101608.31;5012884;28;20053;-85
2021/11/24 04:23:08;;;;;;;9.23;6.00;;;;;;;6.04;100.00;101610.84;4999979;28;20406;-84
2021/11/24 04:25:35;;;;;;;13.43;6.33;;;;;;;6.01;100.00;101616.06;5017941;28;20047;-84
2021/11/24 04:28:03;;;;;;;12.80;6.57;;;;;;;6.04;100.00;101613.47;5015361;28;20045;-84
2021/11/24 04:30:30;;;;;;;10.03;6.27;;;;;;;6.03;100.00;101617.84;5013299;28;20041;-84
2021/11/24 04:32:57;;;;;;;11.80;6.63;;;;;;;6.02;100.00;101618.72;5021877;28;20043;-85
2021/11/24 04:35:23;;;;;;;11.17;6.80;;;;;;;6.04;100.00;101621.34;5011919;28;20041;-84
2021/11/24 04:37:52;;;;;;;12.83;7.00;;;;;;;6.03;100.00;101617.84;5014671;28;20088;-84
2021/11/24 04:40:18;;;;;;;9.60;5.50;;;;;;;6.02;100.00;101620.47;5029612;28;20041;-83
2021/11/24 04:42:46;;;;;;;11.63;6.27;;;;;;;5.97;100.00;101612.53;4997985;28;20045;-83
2021/11/24 04:45:13;;;;;;;13.13;6.17;;;;;;;5.93;100.00;101600.22;5026339;28;20046;-84
2021/11/24 04:47:40;;;;;;;9.83;6.27;;;;;;;5.92;100.00;101603.72;5019210;28;20045;-84
2021/11/24 04:50:07;;;;;;;10.13;5.93;;;;;;;5.96;100.00;101602.88;5024474;28;20045;-86
2021/11/24 04:52:35;;;;;;;9.33;5.87;;;;;;;5.93;100.00;101608.09;5011640;28;20060;-85
2021/11/24 04:55:03;;;;;;;13.17;6.50;;;;;;;5.97;100.00;101609.91;5008912;28;20053;-86
2021/11/24 04:57:29;;;;;;;9.67;5.63;;;;;;;5.95;100.00;101608.09;5014766;28;20033;-85
2021/11/24 04:59:56;;;;;;;9.97;5.90;;;;;;;5.97;100.00;101606.38;4996727;28;20045;-85
2021/11/24 05:02:23;;;;;;;11.60;6.30;;;;;;;6.01;100.00;101616.06;4996500;28;20045;-84
2021/11/24 05:04:50;;;;;;;10.63;6.27;;;;;;;5.99;100.00;101613.44;4996001;28;20072;-84
2021/11/24 05:07:16;;;;;;;12.10;6.40;;;;;;;5.97;100.00;101615.16;5044965;28;20343;-84
2021/11/24 05:10:01;;;;;;;12.33;6.27;;;;;;;5.98;100.00;101606.44;5029777;28;20048;-84
2021/11/24 05:12:28;;;;;;;11.23;5.83;;;;;;;5.97;100.00;101614.25;4980289;28;20494;-84
2021/11/24 05:14:55;;;;;;;14.70;7.13;;;;;;;6.03;100.00;101614.34;5021778;28;20049;-83
2021/11/24 05:17:24;;;;;;;12.63;6.20;;;;;;;6.00;100.00;101614.31;5029978;28;20041;-84
2021/11/24 05:19:51;;;;;;;10.57;6.00;;;;;;;6.04;100.00;101618.72;4995528;28;20041;-85
2021/11/24 05:22:18;;;;;;;11.23;6.10;;;;;;;5.95;100.00;101613.34;5014935;28;20104;-84
2021/11/24 05:24:49;;;;;;;13.73;6.37;;;;;;;6.08;100.00;101608.31;5029344;28;20096;-83
2021/11/24 05:27:15;;;;;;;10.57;5.70;;;;;;;6.05;100.00;101616.13;5014092;28;20080;-83
2021/11/24 05:29:42;;;;;;;15.00;6.40;;;;;;;6.08;100.00;101617.94;4996085;28;20046;-84
2021/11/24 05:32:09;;;;;;;9.60;5.37;;;;;;;6.01;100.00;101619.56;5006844;28;20506;-84
2021/11/24 05:34:36;;;;;;;14.27;6.50;;;;;;;5.95;100.00;101618.59;5012273;28;20103;-84
2021/11/24 05:37:03;;;;;;;9.97;5.97;;;;;;;6.11;100.00;101613.59;5013785;28;20549;-83
2021/11/24 05:39:32;;;;;;;12.50;6.23;;;;;;;6.08;100.00;101607.44;5011769;28;20041;-83
2021/11/24 05:41:59;;;;;;;9.67;5.30;;;;;;;6.05;100.00;101603.00;4998055;28;20041;-84
2021/11/24 05:44:26;;;;;;;10.83;5.80;;;;;;;6.05;100.00;101604.75;5012754;28;20053;-84
2021/11/24 05:46:57;;;;;;;12.57;5.87;;;;;;;6.03;100.00;101595.97;5013803;28;20045;-84
2021/11/24 05:49:25;;;;;;;11.97;6.57;;;;;;;6.01;100.00;101600.34;5010158;28;20098;-83
2021/11/24 05:51:53;;;;;;;12.10;6.23;;;;;;;6.01;100.00;101593.34;5013816;28;20046;-85
2021/11/24 05:54:19;;;;;;;12.27;6.20;;;;;;;5.99;100.00;101594.19;5023054;28;20077;-83
2021/11/24 05:56:46;;;;;;;12.27;6.50;;;;;;;5.98;100.00;101584.56;5004785;28;20045;-85
2021/11/24 05:59:15;;;;;;;12.40;6.17;;;;;;;6.00;100.00;101585.47;4993842;28;20041;-84
2021/11/24 06:01:42;;;;;;;12.40;7.10;;;;;;;5.95;100.00;101600.25;5013928;28;20499;-84
2021/11/24 06:04:09;;;;;;;13.70;5.97;;;;;;;5.96;100.00;101599.38;5024880;28;20413;-84
2021/11/24 06:06:36;;;;;;;10.77;6.13;;;;;;;5.95;100.00;101601.13;4997153;28;20457;-85
2021/11/24 06:09:04;;;;;;;11.97;5.93;;;;;;;5.91;100.00;101600.22;5025005;28;20491;-85
2021/11/24 06:11:31;;;;;;;12.43;6.37;;;;;;;5.90;100.00;101597.53;5010592;28;20049;-85
2021/11/24 06:13:58;;;;;;;11.50;6.63;;;;;;;5.90;100.00;101595.84;4992814;28;20046;-84
2021/11/24 06:16:24;;;;;;;9.47;5.43;;;;;;;5.92;100.00;101601.97;4978215;28;20073;-84
2021/11/24 06:18:51;;;;;;;9.70;5.30;;;;;;;5.89;100.00;101599.28;5025636;28;20501;-84
2021/11/24 06:21:21;;;;;;;9.00;5.13;;;;;;;5.93;100.00;101602.84;5013550;28;20073;-85
2021/11/24 06:23:48;;;;;;;10.07;5.10;;;;;;;5.89;100.00;101595.78;5006446;28;20038;-85
2021/11/24 06:26:19;;;;;;;10.00;5.53;;;;;;;5.88;100.00;101596.63;5007227;28;20045;-84
2021/11/24 06:28:47;;;;;;;7.43;4.80;;;;;;;5.90;100.00;101595.84;5044411;28;20498;-84
2021/11/24 06:31:13;;;;;;;10.70;5.77;;;;;;;5.88;100.00;101589.63;5045346;28;20057;-85
2021/11/24 06:33:40;;;;;;;10.20;5.57;;;;;;;5.88;100.00;101596.63;5025165;28;20053;-84
2021/11/24 06:36:07;;;;;;;11.10;6.13;;;;;;;5.88;100.00;101594.00;4994644;28;20549;-85
2021/11/24 06:38:34;;;;;;;8.77;5.63;;;;;;;5.91;100.00;101599.34;5012007;28;20076;-84
2021/11/24 06:41:01;;;;;;;9.70;5.20;;;;;;;5.93;100.00;101597.59;5013496;28;20045;-84
2021/11/24 06:43:27;;;;;;;11.70;5.73;;;;;;;5.89;100.00;101598.41;5012055;28;20049;-85
2021/11/24 06:45:54;;;;;;;10.83;5.73;;;;;;;5.92;100.00;101603.72;5040207;28;20046;-84
2021/11/24 06:48:21;;;;;;;9.93;5.40;;;;;;;5.87;100.00;101592.22;4989127;28;20069;-84
2021/11/24 06:50:48;;;;;;;8.23;4.57;;;;;;;5.88;100.00;101597.50;4980887;28;20053;-84
2021/11/24 06:53:14;;;;;;;10.50;5.87;;;;;;;5.92;100.00;101599.34;5016865;28;20126;-84
2021/11/24 06:55:41;;;;;;;8.37;4.83;;;;;;;6.04;100.00;101592.50;5017137;28;20445;-84
2021/11/24 06:58:08;;;;;;;10.83;5.07;;;;;;;6.00;100.00;101599.47;4980625;28;20056;-85
2021/11/24 07:00:34;;;;;;;8.97;5.47;;;;;;;5.94;100.00;101602.00;4980370;28;20505;-84
2021/11/24 07:03:01;;;;;;;9.37;5.47;;;;;;;5.95;100.00;101595.00;4995513;28;20041;-84
2021/11/24 07:05:28;;;;;;;10.03;5.40;;;;;;;6.03;100.00;101598.59;5012583;28;20255;-83
2021/11/24 07:07:54;;;;;;;7.37;4.73;;;;;;;5.96;100.00;101597.63;4997030;28;20037;-83
2021/11/24 07:10:21;;;;;;;8.50;5.17;;;;;;;5.95;100.00;101597.63;5012149;28;20437;-83
2021/11/24 07:12:48;;;;;;;8.37;6.07;;;;;;;6.02;100.00;101596.84;5014441;28;20695;-84
2021/11/24 07:15:15;;;;;;;10.53;5.53;;;;;;;5.98;100.00;101603.81;5009052;28;20065;-83
2021/11/24 07:17:41;;;;;;;8.97;5.13;;;;;;;6.02;100.00;101602.97;5010174;28;20046;-84
2021/11/24 07:20:08;;;;;;;11.13;6.67;;;;;;;6.06;100.00;101606.53;4985843;28;20045;-84
2021/11/24 07:22:35;;;;;;;10.97;5.77;;;;;;;5.98;100.00;101609.06;5026725;28;20057;-85
2021/11/24 07:25:03;;;;;;;10.70;5.60;;;;;;;5.98;100.00;101610.78;4995310;28;20046;-83
2021/11/24 07:27:30;;;;;;;9.87;5.87;;;;;;;6.00;100.00;101614.31;4997086;28;20095;-84
2021/11/24 07:29:56;;;;;;;8.50;5.00;;;;;;;6.01;100.00;101613.44;5028508;28;20105;-84
2021/11/24 07:32:23;;;;;;;8.20;4.80;;;;;;;6.07;100.00;101617.03;5090672;22;20042;-86
2021/11/24 07:34:49;;;;;;;8.93;5.03;;;;;;;6.04;100.00;101616.09;5025380;28;20055;-84
2021/11/24 07:37:16;;;;;;;10.57;5.70;;;;;;;6.03;100.00;101617.84;5017057;28;20498;-84
2021/11/24 07:39:44;;;;;;;8.60;5.07;;;;;;;6.09;100.00;101615.31;5041941;28;20059;-83
2021/11/24 07:42:10;;;;;;;10.97;5.87;;;;;;;6.09;100.00;101612.69;5020512;28;20101;-84
2021/11/24 07:44:37;;;;;;;8.47;4.60;;;;;;;6.10;100.00;101617.06;5021386;28;20058;-86
2021/11/24 07:47:04;;;;;;;8.93;4.97;;;;;;;6.14;100.00;101611.03;5040167;28;20067;-84
2021/11/24 07:49:31;;;;;;;9.80;4.93;;;;;;;6.17;100.00;101618.03;5022789;28;20048;-84
2021/11/24 07:51:58;;;;;;;9.63;5.13;;;;;;;6.11;100.00;101615.31;5023750;28;20037;-85
2021/11/24 07:54:25;;;;;;;8.33;5.00;;;;;;;6.10;100.00;101614.44;5036538;28;20106;-84
2021/11/24 07:56:52;;;;;;;9.57;5.93;;;;;;;6.12;100.00;101610.09;5036846;28;20045;-84
2021/11/24 07:59:18;;;;;;;10.93;6.13;;;;;;;6.14;100.00;101611.03;5055238;28;20040;-84
2021/11/24 08:01:45;;;;;;;9.63;5.50;;;;;;;6.29;100.00;101605.06;5047499;28;20094;-84
2021/11/24 08:04:12;;;;;;;9.20;5.30;;;;;;;6.25;100.00;101610.28;5035310;28;20131;-85
2021/11/24 08:06:39;;;;;;;7.73;5.40;;;;;;;6.25;100.00;101611.16;5031500;28;20456;-84
2021/11/24 08:09:05;;;;;;;8.10;4.87;;;;;;;6.24;100.00;101606.75;5035433;28;20037;-84
2021/11/24 08:11:32;;;;;;;10.17;4.77;;;;;;;6.27;100.00;101609.41;5037293;28;20505;-87
2021/11/24 08:13:59;;;;;;;7.90;4.10;;;;;;;6.28;100.00;101605.91;5019351;28;20508;-85
2021/11/24 08:16:26;;;;;;;8.57;4.90;;;;;;;6.33;100.00;101608.63;5094263;28;20044;-84
2021/11/24 08:18:53;;;;;;;8.20;4.57;;;;;;;6.28;100.00;101605.03;5058599;28;20044;-84
2021/11/24 08:21:20;;;;;;;8.30;4.77;;;;;;;6.32;100.00;101599.88;5054022;28;20044;-84
2021/11/24 08:23:48;;;;;;;7.93;5.20;;;;;;;6.32;100.00;101594.63;5022244;28;20114;-83
2021/11/24 08:26:15;;;;;;;7.97;4.40;;;;;;;6.40;100.00;101598.22;5023996;28;20493;-85
2021/11/24 08:28:42;;;;;;;8.10;5.00;;;;;;;6.41;100.00;101596.47;5038450;28;20067;-84
2021/11/24 08:31:09;;;;;;;10.03;5.27;;;;;;;6.43;100.00;101598.22;5023235;28;20060;-87
2021/11/24 08:33:36;;;;;;;8.90;4.70;;;;;;;6.41;100.00;101591.22;5034919;28;20054;-84
2021/11/24 08:36:03;;;;;;;8.10;4.37;;;;;;;6.42;100.00;101592.97;5020591;28;20045;-84
2021/11/24 08:38:30;;;;;;;9.07;4.90;;;;;;;6.47;100.00;101591.25;5019497;28;20509;-84
2021/11/24 08:40:57;;;;;;;8.20;5.10;;;;;;;6.48;100.00;101596.56;5021471;28;20041;-85
2021/11/24 08:43:24;;;;;;;7.37;4.80;;;;;;;6.56;100.00;101603.59;5019578;28;20053;-84
2021/11/24 08:45:51;;;;;;;8.03;5.20;;;;;;;6.55;100.00;101607.09;5027484;28;20055;-82
2021/11/24 08:48:19;;;;;;;8.23;4.10;;;;;;;6.52;100.00;101596.56;5033203;28;20041;-81
2021/11/24 08:50:46;;;;;;;8.10;4.93;;;;;;;6.59;100.00;101599.28;5050784;28;20045;-83
2021/11/24 08:53:13;;;;;;;8.80;5.33;;;;;;;6.67;100.00;101602.88;5054531;28;20041;-81
2021/11/24 08:55:40;;;;;;;8.27;4.73;;;;;;;6.69;100.00;101590.63;5027765;28;20104;-82
2021/11/24 08:58:07;;;;;;;10.17;6.07;;;;;;;6.75;100.00;101595.09;5068911;28;20100;-82
2021/11/24 09:00:34;;;;;;;11.37;6.80;;;;;;;6.76;100.00;101594.22;5068416;28;20049;-82
2021/11/24 09:03:01;;;;;;;8.97;5.97;;;;;;;6.74;100.00;101585.44;5047811;28;20024;-82
2021/11/24 09:05:28;;;;;;;9.33;6.27;;;;;;;6.74;100.00;101591.56;5047271;28;20058;-82
2021/11/24 09:07:55;;;;;;;8.23;4.97;;;;;;;6.80;100.00;101588.09;5067623;28;20112;-82
2021/11/24 09:10:22;;;;;;;9.50;6.17;;;;;;;6.85;100.00;101593.44;5057340;28;20045;-82
2021/11/24 09:12:48;;;;;;;9.27;5.63;;;;;;;6.85;100.00;101596.06;5090506;28;20051;-83
2021/11/24 09:15:15;;;;;;;10.43;5.40;;;;;;;6.91;100.00;101588.25;5070006;28;20051;-83
2021/11/24 09:18:03;;;;;;;8.27;4.73;;;;;;;6.91;100.00;101588.25;5054515;28;20056;-82
2021/11/24 09:20:32;;;;;;;16.13;10.40;;;;;;;6.95;100.00;101590.00;5050897;28;20055;-81
2021/11/24 09:23:00;;;;;;;12.90;8.53;;;;;;;6.96;100.00;101576.88;5040279;28;20045;-82
2021/11/24 09:25:36;;;;;;;13.03;8.17;;;;;;;7.04;100.00;101590.09;5072750;28;20054;-81
2021/11/24 09:28:09;;;;;;;13.67;9.20;;;;;;;7.03;100.00;101593.59;5055673;28;20033;-82
2021/11/24 09:30:37;;;;;;;10.93;5.73;;;;;;;7.05;100.00;101581.34;5072403;28;20101;-82
2021/11/24 09:33:04;;;;;;;8.33;5.70;;;;;;;7.03;100.00;101585.72;5072729;28;20135;-82
2021/11/24 09:35:31;;;;;;;10.70;5.40;;;;;;;7.07;100.00;101584.00;5069602;28;20795;-82
2021/11/24 09:37:59;;;;;;;8.13;4.43;;;;;;;7.08;100.00;101581.38;5054245;28;20056;-84
2021/11/24 09:40:25;;;;;;;6.63;4.57;;;;;;;7.14;100.00;101577.91;5054145;28;20052;-82
2021/11/24 09:42:56;;;;;;;6.97;4.03;;;;;;;7.18;100.00;101577.09;5039181;28;20040;-82
2021/11/24 09:45:24;;;;;;;6.20;4.40;;;;;;;7.17;100.00;101570.06;5070526;28;20033;-80
2021/11/24 09:47:55;;;;;;;6.93;4.27;;;;;;;7.19;100.00;101579.72;5074051;28;20062;-81
2021/11/24 09:50:24;;;;;;;4.67;3.10;;;;;;;7.20;100.00;101573.59;5070563;28;20067;-81
2021/11/24 09:52:52;;;;;;;6.07;3.60;;;;;;;7.11;100.00;101575.25;5084196;28;20064;-82
2021/11/24 09:55:20;;;;;;;5.53;3.20;;;;;;;7.12;100.00;101572.66;5054165;28;20045;-82
2021/11/24 09:57:48;;;;;;;5.87;3.60;;;;;;;7.11;100.00;101572.63;5040438;28;20063;-81
2021/11/24 10:00:15;;;;;;;5.87;3.80;;;;;;;7.14;100.00;101575.28;5039280;28;20090;-81
2021/11/24 10:02:42;;;;;;;6.23;3.93;;;;;;;7.17;100.00;101570.94;5046080;28;20050;-81
2021/11/24 10:05:10;;;;;;;6.83;3.83;;;;;;;7.14;100.00;101570.03;5070458;28;20067;-81
2021/11/24 10:07:39;;;;;;;6.03;3.63;;;;;;;7.09;100.00;101562.13;5037183;28;20145;-82
2021/11/24 10:10:07;;;;;;;5.40;3.43;;;;;;;7.07;100.00;101571.75;5065125;28;20051;-81
2021/11/24 10:12:33;;;;;;;8.10;4.33;;;;;;;7.12;100.00;101563.88;5023565;28;20039;-82
2021/11/24 10:15:02;;;;;;;6.70;4.10;;;;;;;7.07;100.00;101558.59;5039800;28;20107;-82
2021/11/24 10:17:29;;;;;;;8.40;5.00;;;;;;;7.05;100.00;101552.44;5053632;28;20040;-81
2021/11/24 10:20:02;;;;;;;9.67;6.03;;;;;;;7.05;100.00;101544.56;5051262;28;20070;-81
2021/11/24 10:22:29;;;;;;;8.60;6.57;;;;;;;7.03;100.00;101547.19;5066857;28;20062;-82
2021/11/24 10:25:10;;;;;;;8.73;7.80;;;;;;;7.09;100.00;101542.84;5053690;28;20044;-82
2021/11/24 10:27:40;;;;;;;8.50;5.60;;;;;;;7.13;100.00;101537.63;5033270;28;20041;-82
2021/11/24 10:30:29;;;;;;;6.80;5.10;;;;;;;7.09;100.00;101541.09;5043442;28;20083;-82
2021/11/24 10:33:15;;;;;;;7.27;4.90;;;;;;;7.07;100.00;101539.34;5045875;28;20048;-81
2021/11/24 10:35:42;;;;;;;5.90;3.90;;;;;;;7.10;100.00;101532.34;5053122;28;20102;-81
2021/11/24 10:38:14;;;;;;;6.73;3.93;;;;;;;7.05;100.00;101524.41;5064871;28;20124;-82
2021/11/24 10:40:53;;;;;;;6.45;4.63;;;;;;;7.06;100.00;101527.91;4972790;28;20118;-81
2021/11/24 10:43:30;;;;;;;;;;;;;;;7.07;100.00;101520.94;4981046;28;20593;-83
2021/11/24 10:45:58;;;;;;;8.40;4.53;;;;;;;6.99;100.00;101531.38;5040494;28;19928;-82
2021/11/24 10:48:29;;;;;;;6.17;4.40;;;;;;;7.03;100.00;101522.66;5048968;28;20133;-82
2021/11/24 10:50:56;;;;;;;7.10;5.03;;;;;;;7.05;100.00;101516.53;5075644;28;20053;-81
2021/11/24 10:53:25;;;;;;;11.60;6.87;;;;;;;7.01;100.00;101520.03;5038915;28;20057;-83
2021/11/24 10:55:53;;;;;;;9.73;7.13;;;;;;;7.03;100.00;101520.03;5040666;28;20239;-82
2021/11/24 10:58:25;;;;;;;7.97;5.10;;;;;;;7.04;100.00;101516.53;5042173;28;20033;-83
2021/11/24 11:00:56;;;;;;;10.02;5.18;;;;;;;7.02;100.00;101508.63;5033538;28;20510;-82
2021/11/24 11:03:41;;;;;;;8.25;5.15;;;;;;;7.01;100.00;101503.38;5048808;28;20059;-81
2021/11/24 11:06:07;;;;;;;7.63;4.73;;;;;;;7.07;100.00;101503.44;5062636;28;20051;-82
2021/11/24 11:08:34;;;;;;;8.17;4.97;;;;;;;7.10;100.00;101497.31;5027330;28;20048;-82
2021/11/24 11:11:32;;;;;;;44.27;30.57;;;;;;;7.03;100.00;101496.38;5030337;28;20044;-82
2021/11/24 11:14:21;;;;;;;9.83;6.70;;;;;;;7.00;100.00;101496.38;5049330;28;20131;-82
2021/11/24 11:16:55;;;;;;;13.50;8.00;;;;;;;7.03;100.00;101489.38;5030677;28;20053;-82
2021/11/24 11:19:49;;;;;;;28.40;21.67;;;;;;;7.02;100.00;101489.38;5045952;28;20041;-82
2021/11/24 11:22:19;;;;;;;57.07;51.60;;;;;;;7.00;100.00;101476.22;5065411;28;20049;-81
2021/11/24 11:24:46;;;;;;;13.50;9.80;;;;;;;7.04;100.00;101471.84;5082659;28;20092;-82